createdAt,value
2023-05-29T00:01:08.464Z,17.13
2023-05-29T00:03:37.300Z,15.55
2023-05-29T00:06:21.413Z,18.20
2023-05-29T00:11:35.097Z,16.67
2023-05-29T00:14:04.313Z,18.30
2023-05-29T00:16:39.745Z,19.88
2023-05-29T00:19:08.851Z,17.77
2023-05-29T00:21:37.041Z,19.40
2023-05-29T00:24:05.348Z,17.20
2023-05-29T00:26:40.177Z,17.17
2023-05-29T00:29:08.494Z,17.90
2023-05-29T00:31:39.868Z,16.85
2023-05-29T00:37:13.494Z,18.77
2023-05-29T00:40:01.820Z,15.45
2023-05-29T00:42:30.116Z,20.05
2023-05-29T00:44:58.361Z,15.07
2023-05-29T00:53:33.425Z,19.15
2023-05-29T01:04:20.924Z,19.23
2023-05-29T01:09:38.161Z,18.27
2023-05-29T01:12:34.444Z,22.70
2023-05-29T01:19:09.631Z,19.05
2023-05-29T01:22:10.347Z,18.25
2023-05-29T01:24:55.907Z,17.02
2023-05-29T01:27:33.697Z,20.95
2023-05-29T01:43:22.480Z,22.77
2023-05-29T01:57:35.182Z,20.00
2023-05-29T02:00:38.445Z,25.25
2023-05-29T02:03:35.069Z,20.40
2023-05-29T02:06:06.111Z,25.33
2023-05-29T02:08:47.529Z,23.33
2023-05-29T02:11:15.533Z,24.33
2023-05-29T02:13:44.246Z,28.42
2023-05-29T02:16:12.505Z,32.30
2023-05-29T02:18:42.536Z,30.55
2023-05-29T02:21:17.772Z,29.88
2023-05-29T02:26:28.246Z,37.63
2023-05-29T02:35:57.763Z,32.75
2023-05-29T02:38:25.660Z,32.28
2023-05-29T02:40:53.887Z,30.92
2023-05-29T02:46:17.480Z,25.92
2023-05-29T02:55:14.115Z,25.48
2023-05-29T02:57:42.957Z,24.55
2023-05-29T03:02:59.928Z,20.33
2023-05-29T03:05:34.094Z,19.20
2023-05-29T03:08:02.105Z,16.35
2023-05-29T03:10:37.120Z,15.18
2023-05-29T03:13:05.174Z,14.48
2023-05-29T03:15:35.950Z,18.00
2023-05-29T03:18:03.987Z,14.00
2023-05-29T03:20:32.414Z,15.13
2023-05-29T03:23:02.133Z,17.83
2023-05-29T03:25:37.275Z,12.98
2023-05-29T03:28:05.247Z,14.65
2023-05-29T03:30:50.003Z,10.98
2023-05-29T03:33:20.849Z,9.65
2023-05-29T03:36:01.775Z,11.95
2023-05-29T03:38:29.983Z,14.23
2023-05-29T03:41:00.911Z,12.05
2023-05-29T03:43:29.197Z,15.95
2023-05-29T03:45:57.185Z,18.35
2023-05-29T03:48:26.248Z,14.20
2023-05-29T03:53:40.004Z,7.10
2023-05-29T03:59:17.165Z,10.98
2023-05-29T04:08:11.530Z,12.57
2023-05-29T04:10:48.107Z,13.55
2023-05-29T04:13:16.063Z,12.55
2023-05-29T04:15:43.997Z,12.55
2023-05-29T04:18:12.128Z,10.38
2023-05-29T04:20:40.277Z,9.90
2023-05-29T04:23:09.338Z,10.75
2023-05-29T04:25:55.609Z,10.65
2023-05-29T04:28:39.965Z,11.52
2023-05-29T04:33:51.194Z,10.00
2023-05-29T04:39:08.895Z,12.05
2023-05-29T04:44:36.860Z,13.27
2023-05-29T04:47:07.942Z,10.32
2023-05-29T04:49:36.574Z,9.27
2023-05-29T04:54:49.229Z,11.27
2023-05-29T05:00:07.800Z,16.42
2023-05-29T05:02:38.231Z,11.88
2023-05-29T05:05:06.529Z,9.65
2023-05-29T05:07:34.476Z,10.85
2023-05-29T05:10:03.591Z,12.57
2023-05-29T05:12:33.191Z,13.55
2023-05-29T05:15:02.969Z,10.75
2023-05-29T05:17:32.034Z,12.13
2023-05-29T05:22:44.034Z,8.63
2023-05-29T05:25:12.884Z,10.90
2023-05-29T05:27:41.003Z,9.80
2023-05-29T05:30:09.602Z,11.18
2023-05-29T05:35:20.758Z,8.32
2023-05-29T05:37:48.975Z,10.32
2023-05-29T05:40:17.379Z,9.45
2023-05-29T05:48:36.169Z,12.85
2023-05-29T05:53:58.198Z,10.35
2023-05-29T05:56:27.798Z,9.90
2023-05-29T05:58:56.022Z,8.07
2023-05-29T06:01:23.993Z,10.40
2023-05-29T06:03:52.622Z,11.00
2023-05-29T06:06:20.938Z,12.80
2023-05-29T06:08:50.477Z,16.23
2023-05-29T06:11:18.803Z,12.30
2023-05-29T06:13:47.843Z,9.93
2023-05-29T06:16:24.042Z,12.75
2023-05-29T06:18:53.356Z,10.45
2023-05-29T06:21:21.820Z,13.25
2023-05-29T06:23:54.209Z,11.73
2023-05-29T06:26:26.492Z,14.32
2023-05-29T06:28:56.060Z,14.20
2023-05-29T06:31:31.626Z,17.02
2023-05-29T06:51:27.558Z,21.58
2023-05-29T06:53:58.190Z,21.98
2023-05-29T06:59:12.874Z,24.00
2023-05-29T07:02:00.349Z,30.73
2023-05-29T07:04:29.656Z,28.50
2023-05-29T07:06:58.286Z,31.10
2023-05-29T07:09:32.849Z,31.08
2023-05-29T07:12:00.878Z,28.23
2023-05-29T07:14:35.484Z,27.83
2023-05-29T07:17:04.330Z,29.67
2023-05-29T07:19:40.043Z,32.58
2023-05-29T07:22:07.915Z,31.48
2023-05-29T07:24:42.896Z,30.20
2023-05-29T07:27:10.992Z,27.00
2023-05-29T07:29:45.918Z,26.17
2023-05-29T07:32:13.930Z,30.55
2023-05-29T07:34:51.418Z,28.02
2023-05-29T07:37:20.449Z,23.52
2023-05-29T07:39:48.837Z,27.05
2023-05-29T07:42:36.938Z,27.60
2023-05-29T07:45:05.737Z,24.48
2023-05-29T07:47:34.168Z,26.20
2023-05-29T07:50:10.933Z,28.45
2023-05-29T07:52:38.928Z,29.92
2023-05-29T07:55:15.032Z,29.73
2023-05-29T07:57:43.671Z,28.80
2023-05-29T08:00:15.066Z,25.15
2023-05-29T08:02:49.018Z,27.77
2023-05-29T08:05:33.247Z,26.23
2023-05-29T08:08:04.134Z,28.17
2023-05-29T08:10:33.639Z,32.28
2023-05-29T08:13:07.810Z,22.73
2023-05-29T08:15:37.541Z,23.07
2023-05-29T08:18:11.871Z,26.27
2023-05-29T08:20:40.256Z,27.17
2023-05-29T08:23:08.195Z,22.40
2023-05-29T08:25:36.094Z,20.00
2023-05-29T08:28:03.964Z,20.83
2023-05-29T08:30:32.321Z,24.08
2023-05-29T08:33:06.933Z,20.55
2023-05-29T08:35:35.367Z,21.90
2023-05-29T08:38:09.842Z,22.92
2023-05-29T08:40:38.478Z,21.45
2023-05-29T08:43:21.414Z,20.77
2023-05-29T09:26:36.568Z,8.40
2023-05-29T09:29:04.806Z,8.38
2023-05-29T09:34:20.257Z,7.57
2023-05-29T09:36:48.133Z,7.32
2023-05-29T09:39:22.922Z,6.70
2023-05-29T09:41:51.063Z,9.68
2023-05-29T09:44:29.763Z,8.45
2023-05-29T09:47:00.921Z,9.55
2023-05-29T09:49:32.768Z,9.82
2023-05-29T09:52:01.836Z,7.45
2023-05-29T09:54:34.046Z,8.15
2023-05-29T09:57:05.448Z,8.02
2023-05-29T09:59:34.772Z,9.65
2023-05-29T10:02:05.639Z,6.20
2023-05-29T10:04:36.674Z,7.35
2023-05-29T10:07:29.772Z,7.10
2023-05-29T10:10:10.621Z,6.28
2023-05-29T10:12:43.567Z,7.50
2023-05-29T10:15:17.704Z,7.93
2023-05-29T10:17:58.819Z,6.85
2023-05-29T10:20:29.789Z,9.38
2023-05-29T10:23:00.152Z,6.43
2023-05-29T10:25:31.586Z,6.75
2023-05-29T10:28:01.013Z,6.75
2023-05-29T10:30:44.956Z,6.60
2023-05-29T10:33:43.617Z,7.10
2023-05-29T10:36:14.781Z,10.18
2023-05-29T10:38:45.923Z,9.05
2023-05-29T10:41:29.184Z,7.30
2023-05-29T10:43:58.388Z,7.75
2023-05-29T10:46:47.842Z,6.57
2023-05-29T10:49:22.938Z,9.20
2023-05-29T10:51:52.504Z,10.27
2023-05-29T10:54:25.447Z,9.18
2023-05-29T10:56:56.552Z,8.65
2023-05-29T10:59:28.873Z,10.60
2023-05-29T11:01:58.872Z,8.77
2023-05-29T11:04:33.015Z,8.77
2023-05-29T11:07:02.072Z,12.45
2023-05-29T11:09:32.931Z,12.70
2023-05-29T11:12:47.507Z,13.60
2023-05-29T11:15:17.111Z,13.30
2023-05-29T11:17:46.863Z,11.32
2023-05-29T11:20:38.384Z,10.52
2023-05-29T11:23:10.931Z,12.75
2023-05-29T11:25:39.209Z,10.63
2023-05-29T11:28:12.033Z,13.32
2023-05-29T11:30:50.151Z,12.55
2023-05-29T11:33:28.746Z,11.30
2023-05-29T11:36:01.415Z,12.93
2023-05-29T11:38:30.117Z,12.40
2023-05-29T11:40:59.546Z,13.32
2023-05-29T11:43:34.720Z,13.60
2023-05-29T11:46:03.648Z,12.63
2023-05-29T11:48:31.600Z,13.82
2023-05-29T11:51:02.441Z,13.40
2023-05-29T11:53:32.443Z,12.55
2023-05-29T11:56:13.649Z,10.68
2023-05-29T11:58:42.328Z,10.25
2023-05-29T12:01:10.502Z,11.90
2023-05-29T12:03:42.795Z,11.32
2023-05-29T12:06:14.395Z,9.20
2023-05-29T12:08:42.635Z,10.40
2023-05-29T12:11:10.676Z,10.43
2023-05-29T12:13:38.658Z,13.18
2023-05-29T12:16:08.086Z,13.85
2023-05-29T12:18:36.324Z,12.70
2023-05-29T12:21:08.660Z,10.73
2023-05-29T12:23:40.398Z,12.35
2023-05-29T12:26:08.315Z,13.63
2023-05-29T12:28:36.320Z,11.73
2023-05-29T12:31:04.356Z,11.48
2023-05-29T12:33:33.261Z,15.35
2023-05-29T12:36:09.008Z,17.52
2023-05-29T12:38:53.178Z,12.20
2023-05-29T12:41:24.313Z,12.98
2023-05-29T12:43:56.344Z,18.15
2023-05-29T12:46:28.741Z,13.40
2023-05-29T12:48:57.746Z,12.93
2023-05-29T12:51:29.413Z,9.70
2023-05-29T12:53:58.939Z,10.02
2023-05-29T12:56:27.913Z,11.27
2023-05-29T12:58:56.028Z,12.35
2023-05-29T13:01:25.605Z,12.25
2023-05-29T13:03:53.701Z,14.50
2023-05-29T13:06:21.828Z,14.20
2023-05-29T13:08:49.909Z,11.95
2023-05-29T13:11:17.802Z,12.05
2023-05-29T13:13:46.006Z,14.07
2023-05-29T13:16:13.902Z,13.43
2023-05-29T13:18:41.873Z,12.52
2023-05-29T13:21:09.757Z,15.20
2023-05-29T13:23:37.941Z,17.10
2023-05-29T13:26:06.601Z,13.80
2023-05-29T13:28:35.020Z,13.88
2023-05-29T13:31:02.926Z,12.43
2023-05-29T13:33:31.211Z,13.65
2023-05-29T13:35:59.384Z,12.32
2023-05-29T13:38:28.489Z,14.23
2023-05-29T13:40:56.656Z,18.40
2023-05-29T13:43:32.360Z,13.63
2023-05-29T13:46:07.936Z,14.70
2023-05-29T13:48:35.852Z,16.98
2023-05-29T13:51:03.813Z,13.18
2023-05-29T13:53:31.894Z,12.45
2023-05-29T13:55:59.853Z,13.32
2023-05-29T13:58:27.822Z,14.30
2023-05-29T14:00:55.899Z,20.33
2023-05-29T14:03:26.754Z,14.20
2023-05-29T14:05:55.023Z,16.08
2023-05-29T14:08:23.036Z,12.73
2023-05-29T14:10:52.275Z,14.68
2023-05-29T14:13:20.120Z,15.82
2023-05-29T14:15:50.276Z,15.98
2023-05-29T14:18:18.184Z,11.88
2023-05-29T14:20:49.631Z,12.43
2023-05-29T14:23:21.079Z,12.55
2023-05-29T14:25:49.014Z,11.80
2023-05-29T14:28:16.967Z,10.52
2023-05-29T14:30:45.253Z,13.40
2023-05-29T14:33:13.183Z,15.80
2023-05-29T14:35:41.157Z,12.50
2023-05-29T14:38:09.004Z,14.50
2023-05-29T14:40:37.338Z,12.13
2023-05-29T14:43:05.404Z,10.98
2023-05-29T14:45:33.296Z,10.60
2023-05-29T14:48:02.359Z,12.35
2023-05-29T14:50:30.444Z,10.95
2023-05-29T14:52:58.342Z,15.57
2023-05-29T14:55:26.358Z,14.00
2023-05-29T14:57:54.251Z,13.27
2023-05-29T15:00:22.306Z,15.27
2023-05-29T15:02:50.273Z,11.48
2023-05-29T15:05:20.116Z,11.13
2023-05-29T15:07:48.001Z,14.80
2023-05-29T15:10:18.600Z,11.40
2023-05-29T15:12:46.523Z,8.93
2023-05-29T15:15:14.441Z,14.98
2023-05-29T15:17:42.367Z,14.52
2023-05-29T15:20:10.928Z,11.52
2023-05-29T15:22:38.922Z,11.52
2023-05-29T15:25:07.043Z,14.65
2023-05-29T15:27:35.413Z,15.70
2023-05-29T15:30:29.647Z,15.15
2023-05-29T15:32:57.528Z,14.90
2023-05-29T15:35:26.166Z,13.38
2023-05-29T15:37:54.211Z,16.40
2023-05-29T15:40:22.207Z,11.35
2023-05-29T15:42:50.399Z,13.70
2023-05-29T15:45:18.297Z,13.65
2023-05-29T15:47:46.192Z,12.65
2023-05-29T15:50:14.101Z,14.32
2023-05-29T15:52:53.504Z,12.85
2023-05-29T15:55:25.104Z,20.80
2023-05-29T15:57:53.295Z,37.50
2023-05-29T16:00:21.655Z,23.67
2023-05-29T16:02:51.616Z,19.55
2023-05-29T16:05:19.809Z,19.17
2023-05-29T16:07:49.413Z,17.92
2023-05-29T16:10:17.806Z,23.23
2023-05-29T16:12:49.888Z,36.70
2023-05-29T16:15:21.483Z,18.52
2023-05-29T16:17:49.462Z,17.65
2023-05-29T16:20:17.725Z,12.93
2023-05-29T16:22:46.055Z,16.25
2023-05-29T16:25:14.022Z,14.10
2023-05-29T16:27:41.974Z,15.27
2023-05-29T16:30:11.427Z,14.02
2023-05-29T16:32:39.413Z,17.95
2023-05-29T16:35:08.160Z,14.90
2023-05-29T16:37:36.535Z,14.15
2023-05-29T16:40:04.845Z,15.40
2023-05-29T16:42:34.990Z,13.18
2023-05-29T16:45:03.190Z,14.93
2023-05-29T16:47:32.315Z,13.55
2023-05-29T16:50:00.368Z,16.48
2023-05-29T16:52:28.352Z,16.55
2023-05-29T16:54:59.158Z,14.75
2023-05-29T16:57:27.606Z,12.80
2023-05-29T16:59:56.225Z,14.68
2023-05-29T17:02:24.206Z,16.77
2023-05-29T17:04:58.742Z,17.85
2023-05-29T17:07:27.149Z,20.08
2023-05-29T17:09:55.032Z,15.20
2023-05-29T17:12:23.582Z,16.55
2023-05-29T17:14:51.943Z,16.92
2023-05-29T17:17:21.971Z,18.58
2023-05-29T17:19:50.863Z,19.20
2023-05-29T17:22:18.831Z,16.35
2023-05-29T17:24:46.720Z,18.77
2023-05-29T17:27:20.747Z,19.77
2023-05-29T17:29:48.748Z,18.40
2023-05-29T17:32:16.952Z,19.33
2023-05-29T17:34:44.825Z,20.27
2023-05-29T17:37:12.764Z,17.73
2023-05-29T17:39:40.613Z,19.95
2023-05-29T17:42:09.168Z,20.52
2023-05-29T17:44:37.230Z,19.83
2023-05-29T17:47:06.081Z,18.08
2023-05-29T17:49:37.135Z,18.70
2023-05-29T17:52:08.156Z,20.17
2023-05-29T17:54:36.609Z,20.73
2023-05-29T17:57:04.703Z,23.70
2023-05-29T17:59:36.774Z,22.30
2023-05-29T18:02:05.043Z,21.10
2023-05-29T18:04:33.368Z,23.30
2023-05-29T18:07:01.666Z,22.08
2023-05-29T18:09:29.591Z,19.15
2023-05-29T18:12:04.661Z,17.58
2023-05-29T18:14:33.588Z,20.58
2023-05-29T18:17:01.492Z,20.67
2023-05-29T18:19:29.602Z,20.77
2023-05-29T18:21:57.527Z,23.15
2023-05-29T18:24:32.735Z,21.98
2023-05-29T18:27:00.728Z,23.88
2023-05-29T18:29:35.740Z,27.67
2023-05-29T18:32:04.221Z,28.10
2023-05-29T18:34:39.683Z,28.65
2023-05-29T18:37:07.680Z,27.45
2023-05-29T18:39:42.737Z,24.98
2023-05-29T18:42:10.764Z,26.45
2023-05-29T18:44:45.823Z,30.08
2023-05-29T18:47:16.957Z,26.15
2023-05-29T18:49:45.084Z,26.38
2023-05-29T18:52:13.079Z,24.38
2023-05-29T18:54:47.729Z,22.35
2023-05-29T18:57:15.824Z,24.55
2023-05-29T18:59:48.435Z,24.42
2023-05-29T19:02:16.581Z,22.67
2023-05-29T19:04:50.754Z,24.65
2023-05-29T19:07:18.944Z,27.10
2023-05-29T19:09:54.647Z,25.48
2023-05-29T19:12:23.162Z,27.95
2023-05-29T19:14:57.792Z,29.65
2023-05-29T19:17:29.654Z,24.75
2023-05-29T19:20:00.844Z,30.00
2023-05-29T19:22:29.030Z,26.70
2023-05-29T19:25:05.214Z,28.83
2023-05-29T19:27:33.372Z,26.55
2023-05-29T19:30:09.065Z,28.15
2023-05-29T19:32:39.943Z,29.00
2023-05-29T19:35:10.525Z,35.53
2023-05-29T19:37:38.700Z,34.03
2023-05-29T19:40:07.339Z,43.03
2023-05-29T19:42:42.055Z,44.10
2023-05-29T19:45:11.363Z,39.67
2023-05-29T19:47:45.738Z,39.28
2023-05-29T19:50:15.457Z,32.88
2023-05-29T19:52:52.943Z,37.10
2023-05-29T19:55:22.667Z,37.83
2023-05-29T19:57:59.417Z,35.17
2023-05-29T20:00:27.663Z,33.60
2023-05-29T20:03:03.030Z,33.92
2023-05-29T20:05:31.205Z,28.65
2023-05-29T20:08:05.651Z,31.02
2023-05-29T20:10:33.578Z,33.22
2023-05-29T20:13:08.347Z,30.33
2023-05-29T20:15:38.020Z,32.30
2023-05-29T20:18:12.609Z,30.02
2023-05-29T20:20:42.438Z,31.90
2023-05-29T20:23:10.837Z,29.38
2023-05-29T20:25:39.040Z,27.70
2023-05-29T20:28:13.661Z,27.05
2023-05-29T20:30:41.570Z,28.00
2023-05-29T20:33:15.668Z,29.73
2023-05-29T20:35:43.597Z,29.60
2023-05-29T20:38:17.804Z,27.40
2023-05-29T20:40:49.296Z,29.13
2023-05-29T20:43:22.233Z,32.47
2023-05-29T20:45:53.954Z,32.30
2023-05-29T20:48:22.613Z,35.50
2023-05-29T20:50:58.021Z,30.83
2023-05-29T20:53:26.276Z,31.98
2023-05-29T20:56:01.770Z,27.08
2023-05-29T20:58:29.703Z,31.17
2023-05-29T21:01:05.316Z,29.40
2023-05-29T21:03:33.375Z,30.85
2023-05-29T21:06:10.080Z,26.77
2023-05-29T21:08:39.989Z,31.23
2023-05-29T21:11:08.508Z,34.80
2023-05-29T21:13:41.079Z,30.77
2023-05-29T21:16:09.362Z,34.33
2023-05-29T21:18:37.254Z,28.70
2023-05-29T21:21:12.824Z,31.88
2023-05-29T21:23:40.665Z,24.45
2023-05-29T21:26:15.902Z,28.77
2023-05-29T21:28:43.858Z,29.05
2023-05-29T21:31:18.977Z,25.17
2023-05-29T21:33:47.787Z,20.88
2023-05-29T21:36:22.979Z,21.55
2023-05-29T21:38:53.197Z,20.27
2023-05-29T21:41:21.417Z,20.40
2023-05-29T21:43:49.577Z,22.58
2023-05-29T21:46:23.783Z,23.33
2023-05-29T21:48:51.827Z,22.33
2023-05-29T21:51:26.614Z,21.10
2023-05-29T21:53:57.238Z,21.15
2023-05-29T21:56:27.770Z,24.25
2023-05-29T21:58:56.088Z,26.42
2023-05-29T22:01:24.072Z,26.48
2023-05-29T22:03:58.813Z,29.70
2023-05-29T22:06:26.805Z,32.95
2023-05-29T22:09:01.627Z,44.08
2023-05-29T22:11:30.311Z,39.33
2023-05-29T22:14:05.582Z,36.88
2023-05-29T22:16:34.129Z,34.78
2023-05-29T22:19:08.641Z,28.02
2023-05-29T22:21:37.254Z,28.40
2023-05-29T22:24:12.763Z,23.02
2023-05-29T22:26:41.503Z,26.20
2023-05-29T22:29:15.649Z,26.52
2023-05-29T22:31:43.756Z,24.10
2023-05-29T22:34:18.636Z,26.80
2023-05-29T22:36:46.607Z,26.38
2023-05-29T22:39:21.623Z,27.08
2023-05-29T22:41:49.690Z,25.63
2023-05-29T22:44:25.115Z,24.58
2023-05-29T22:46:53.142Z,24.95
2023-05-29T22:49:27.752Z,27.55
2023-05-29T22:51:57.936Z,27.65
2023-05-29T22:54:25.837Z,24.80
2023-05-29T22:56:53.848Z,26.25
2023-05-29T22:59:28.483Z,28.35
2023-05-29T23:01:57.207Z,25.90
2023-05-29T23:04:31.584Z,27.48
2023-05-29T23:06:59.577Z,23.33
2023-05-29T23:09:34.687Z,24.58
2023-05-29T23:12:03.301Z,24.45
2023-05-29T23:14:38.312Z,23.67
2023-05-29T23:17:07.050Z,25.92
2023-05-29T23:19:41.578Z,27.00
2023-05-29T23:22:09.446Z,27.55
2023-05-29T23:24:43.564Z,26.35
2023-05-29T23:27:12.493Z,33.28
2023-05-29T23:29:46.529Z,31.38
2023-05-29T23:32:14.493Z,33.70
2023-05-29T23:34:48.510Z,32.58
2023-05-29T23:37:17.518Z,32.20
2023-05-29T23:39:51.552Z,35.47
2023-05-29T23:42:19.533Z,28.27
2023-05-29T23:44:54.337Z,27.35
2023-05-29T23:47:22.256Z,29.38
2023-05-29T23:49:56.590Z,29.90
2023-05-29T23:52:25.442Z,29.38
2023-05-29T23:54:59.600Z,29.83
2023-05-29T23:57:27.667Z,26.77
